createdAt,value
2023-05-22T00:02:25.400Z,17.12
2023-05-22T00:04:53.466Z,17.11
2023-05-22T00:07:23.180Z,17.10
2023-05-22T00:09:51.136Z,17.10
2023-05-22T00:12:19.201Z,17.09
2023-05-22T00:14:47.484Z,17.05
2023-05-22T00:17:16.739Z,17.02
2023-05-22T00:19:46.386Z,17.00
2023-05-22T00:22:14.765Z,17.00
2023-05-22T00:24:42.817Z,17.00
2023-05-22T00:27:10.816Z,16.97
2023-05-22T00:29:38.959Z,16.95
2023-05-22T00:32:07.811Z,16.96
2023-05-22T00:34:36.027Z,16.95
2023-05-22T00:37:06.093Z,16.92
2023-05-22T00:39:34.277Z,16.86
2023-05-22T00:42:02.920Z,16.85
2023-05-22T00:44:31.362Z,16.85
2023-05-22T00:47:00.029Z,16.83
2023-05-22T00:49:28.405Z,16.79
2023-05-22T00:51:56.451Z,16.81
2023-05-22T00:54:26.036Z,16.75
2023-05-22T00:56:54.481Z,16.74
2023-05-22T00:59:22.814Z,16.70
2023-05-22T01:01:51.354Z,16.65
2023-05-22T01:04:20.020Z,16.57
2023-05-22T01:06:48.924Z,16.50
2023-05-22T01:09:17.270Z,16.51
2023-05-22T01:11:57.317Z,16.48
2023-05-22T01:14:34.982Z,16.49
2023-05-22T01:17:22.874Z,16.53
2023-05-22T01:20:07.116Z,16.53
2023-05-22T01:23:12.150Z,16.51
2023-05-22T01:26:13.540Z,16.49
2023-05-22T01:28:57.571Z,16.48
2023-05-22T01:31:31.118Z,16.42
2023-05-22T01:34:04.960Z,16.34
2023-05-22T01:36:36.558Z,16.31
2023-05-22T01:39:06.547Z,16.27
2023-05-22T01:41:35.927Z,16.27
2023-05-22T01:44:04.798Z,16.21
2023-05-22T01:46:34.627Z,16.15
2023-05-22T01:49:03.119Z,16.17
2023-05-22T01:51:40.339Z,16.14
2023-05-22T01:54:18.331Z,16.13
2023-05-22T01:56:55.059Z,16.12
2023-05-22T01:59:31.072Z,16.07
2023-05-22T02:02:06.337Z,16.06
2023-05-22T02:04:40.138Z,16.03
2023-05-22T02:07:11.995Z,16.00
2023-05-22T02:09:41.618Z,15.98
2023-05-22T02:12:10.820Z,15.97
2023-05-22T02:14:39.722Z,15.98
2023-05-22T02:17:09.419Z,15.98
2023-05-22T02:19:37.913Z,15.96
2023-05-22T02:22:06.722Z,15.94
2023-05-22T02:24:36.966Z,15.92
2023-05-22T02:27:05.285Z,15.90
2023-05-22T02:29:33.724Z,15.86
2023-05-22T02:32:02.053Z,15.79
2023-05-22T02:34:32.358Z,15.75
2023-05-22T02:37:00.999Z,15.74
2023-05-22T02:39:29.261Z,15.74
2023-05-22T02:41:57.268Z,15.69
2023-05-22T02:44:25.419Z,15.61
2023-05-22T02:46:53.435Z,15.59
2023-05-22T02:49:21.845Z,15.61
2023-05-22T02:51:51.475Z,15.63
2023-05-22T02:54:19.453Z,15.60
2023-05-22T02:56:47.414Z,15.58
2023-05-22T02:59:16.603Z,15.58
2023-05-22T03:01:45.273Z,15.56
2023-05-22T03:04:14.195Z,15.58
2023-05-22T03:06:45.581Z,15.56
2023-05-22T03:09:16.140Z,15.57
2023-05-22T03:11:44.426Z,15.57
2023-05-22T03:14:12.397Z,15.55
2023-05-22T03:16:40.488Z,15.54
2023-05-22T03:19:10.108Z,15.51
2023-05-22T03:21:38.248Z,15.48
2023-05-22T03:24:07.212Z,15.44
2023-05-22T03:26:37.390Z,15.42
2023-05-22T03:29:05.730Z,15.47
2023-05-22T03:31:35.155Z,15.53
2023-05-22T03:34:03.719Z,15.56
2023-05-22T03:36:34.137Z,15.56
2023-05-22T03:39:02.562Z,15.58
2023-05-22T03:41:31.400Z,15.53
2023-05-22T03:44:01.015Z,15.47
2023-05-22T03:46:29.556Z,15.41
2023-05-22T03:48:58.163Z,15.38
2023-05-22T03:51:26.271Z,15.40
2023-05-22T03:53:54.446Z,15.32
2023-05-22T03:56:22.769Z,15.34
2023-05-22T03:58:51.484Z,15.36
2023-05-22T04:01:21.139Z,15.30
2023-05-22T04:03:49.150Z,15.29
2023-05-22T04:06:17.674Z,15.26
2023-05-22T04:08:45.735Z,15.17
2023-05-22T04:11:15.812Z,15.16
2023-05-22T04:13:43.884Z,15.23
2023-05-22T04:16:11.949Z,15.25
2023-05-22T04:18:41.695Z,15.27
2023-05-22T04:21:10.222Z,15.31
2023-05-22T04:23:38.752Z,15.32
2023-05-22T04:26:08.889Z,15.34
2023-05-22T04:28:38.154Z,15.37
2023-05-22T04:31:07.750Z,15.40
2023-05-22T04:33:36.586Z,15.36
2023-05-22T04:36:09.807Z,15.33
2023-05-22T04:38:39.245Z,15.36
2023-05-22T04:41:08.930Z,15.37
2023-05-22T04:43:38.835Z,15.43
2023-05-22T04:46:08.453Z,15.49
2023-05-22T04:48:36.963Z,15.54
2023-05-22T04:51:07.215Z,15.56
2023-05-22T04:53:36.117Z,15.57
2023-05-22T04:56:04.585Z,15.59
2023-05-22T04:58:32.917Z,15.57
2023-05-22T05:01:01.541Z,15.56
2023-05-22T05:03:30.081Z,15.58
2023-05-22T05:05:59.615Z,15.61
2023-05-22T05:08:29.411Z,15.64
2023-05-22T05:10:57.463Z,15.69
2023-05-22T05:13:25.657Z,15.70
2023-05-22T05:15:54.259Z,15.75
2023-05-22T05:18:22.704Z,15.75
2023-05-22T05:20:50.800Z,15.75
2023-05-22T05:23:19.063Z,15.84
2023-05-22T05:25:48.817Z,15.80
2023-05-22T05:28:17.157Z,15.75
2023-05-22T05:30:45.390Z,15.71
2023-05-22T05:33:13.550Z,15.77
2023-05-22T05:35:43.092Z,15.86
2023-05-22T05:38:11.412Z,15.96
2023-05-22T05:40:39.947Z,16.06
2023-05-22T05:43:09.956Z,16.11
2023-05-22T05:45:38.234Z,16.21
2023-05-22T05:48:07.179Z,16.26
2023-05-22T05:50:35.543Z,16.37
2023-05-22T05:53:05.099Z,16.43
2023-05-22T05:55:34.626Z,16.45
2023-05-22T05:58:03.086Z,16.51
2023-05-22T06:00:32.878Z,16.52
2023-05-22T06:03:01.336Z,16.53
2023-05-22T06:05:30.562Z,16.62
2023-05-22T06:07:59.043Z,16.69
2023-05-22T06:10:27.265Z,16.78
2023-05-22T06:12:55.414Z,16.83
2023-05-22T06:15:23.403Z,16.93
2023-05-22T06:17:52.867Z,17.00
2023-05-22T06:20:20.896Z,17.11
2023-05-22T06:22:48.882Z,17.21
2023-05-22T06:25:17.308Z,17.26
2023-05-22T06:27:45.696Z,17.36
2023-05-22T06:30:16.830Z,17.41
2023-05-22T06:32:48.305Z,17.46
2023-05-22T06:35:18.452Z,17.54
2023-05-22T06:37:46.742Z,17.62
2023-05-22T06:40:14.982Z,17.78
2023-05-22T06:42:44.838Z,17.92
2023-05-22T06:45:13.467Z,18.04
2023-05-22T06:47:45.051Z,18.11
2023-05-22T06:50:13.488Z,18.18
2023-05-22T06:52:43.433Z,18.24
2023-05-22T06:55:11.440Z,18.28
2023-05-22T06:57:39.874Z,18.33
2023-05-22T07:00:11.640Z,18.36
2023-05-22T07:02:40.295Z,18.43
2023-05-22T07:05:09.208Z,18.54
2023-05-22T07:07:37.218Z,18.67
2023-05-22T07:10:07.972Z,18.80
2023-05-22T07:12:36.496Z,18.99
2023-05-22T07:15:04.933Z,19.16
2023-05-22T07:17:32.989Z,19.35
2023-05-22T07:20:00.964Z,19.59
2023-05-22T07:22:29.031Z,19.82
2023-05-22T07:24:57.149Z,20.03
2023-05-22T07:27:26.540Z,20.26
2023-05-22T07:29:54.653Z,20.37
2023-05-22T07:32:22.793Z,20.60
2023-05-22T07:34:51.088Z,20.67
2023-05-22T07:37:19.350Z,20.90
2023-05-22T07:39:47.886Z,20.99
2023-05-22T07:42:15.932Z,21.25
2023-05-22T07:44:45.451Z,21.33
2023-05-22T07:47:13.600Z,21.61
2023-05-22T07:49:41.589Z,21.72
2023-05-22T07:52:09.734Z,21.76
2023-05-22T07:54:37.779Z,21.73
2023-05-22T07:57:08.240Z,21.83
2023-05-22T07:59:37.794Z,22.02
2023-05-22T08:02:10.203Z,22.18
2023-05-22T08:04:38.586Z,22.18
2023-05-22T08:07:07.010Z,22.27
2023-05-22T08:09:35.761Z,22.39
2023-05-22T08:12:03.922Z,22.42
2023-05-22T08:14:35.547Z,22.63
2023-05-22T08:17:03.604Z,22.75
2023-05-22T08:19:33.498Z,22.80
2023-05-22T08:22:01.586Z,22.84
2023-05-22T08:24:30.648Z,22.75
2023-05-22T08:27:00.827Z,22.94
2023-05-22T08:29:30.113Z,23.17
2023-05-22T08:31:58.610Z,23.24
2023-05-22T08:34:27.095Z,23.28
2023-05-22T08:36:56.484Z,23.39
2023-05-22T08:39:24.820Z,23.48
2023-05-22T08:41:53.325Z,23.71
2023-05-22T08:44:22.114Z,23.99
2023-05-22T08:46:52.793Z,24.06
2023-05-22T08:49:24.274Z,24.14
2023-05-22T08:52:04.450Z,24.11
2023-05-22T08:54:35.104Z,24.08
2023-05-22T08:57:03.962Z,23.99
2023-05-22T08:59:35.465Z,24.09
2023-05-22T09:02:06.818Z,24.25
2023-05-22T09:04:35.628Z,24.43
2023-05-22T09:07:06.809Z,24.36
2023-05-22T09:09:38.433Z,24.61
2023-05-22T09:12:09.388Z,24.85
2023-05-22T09:14:41.074Z,24.81
2023-05-22T09:17:11.384Z,24.71
2023-05-22T09:19:44.173Z,24.65
2023-05-22T09:22:14.685Z,24.64
2023-05-22T09:24:44.156Z,24.69
2023-05-22T09:27:13.233Z,24.69
2023-05-22T09:29:51.465Z,24.73
2023-05-22T09:32:20.989Z,24.93
2023-05-22T09:34:49.345Z,24.94
2023-05-22T09:37:19.409Z,25.06
2023-05-22T09:39:51.527Z,25.11
2023-05-22T09:42:19.924Z,25.15
2023-05-22T09:44:50.334Z,25.18
2023-05-22T09:47:18.374Z,25.16
2023-05-22T09:49:47.613Z,25.05
2023-05-22T09:52:17.579Z,25.10
2023-05-22T09:54:55.023Z,25.23
2023-05-22T09:57:25.007Z,25.48
2023-05-22T09:59:58.140Z,25.55
2023-05-22T10:02:27.690Z,25.46
2023-05-22T10:04:55.833Z,25.43
2023-05-22T10:07:26.026Z,25.41
2023-05-22T10:10:00.986Z,25.64
2023-05-22T10:12:33.857Z,25.80
2023-05-22T10:15:04.030Z,25.86
2023-05-22T10:17:32.993Z,25.90
2023-05-22T10:20:01.148Z,26.12
2023-05-22T10:22:30.971Z,26.30
2023-05-22T10:25:02.025Z,26.54
2023-05-22T10:27:30.032Z,26.43
2023-05-22T10:30:05.225Z,26.40
2023-05-22T10:32:37.169Z,26.49
2023-05-22T10:35:18.583Z,26.71
2023-05-22T10:37:52.042Z,26.68
2023-05-22T10:40:29.249Z,26.55
2023-05-22T10:43:01.626Z,26.45
2023-05-22T10:45:30.442Z,26.42
2023-05-22T10:48:06.695Z,26.54
2023-05-22T10:50:35.407Z,26.72
2023-05-22T10:53:24.526Z,26.63
2023-05-22T10:55:55.911Z,26.91
2023-05-22T10:58:28.592Z,26.93
2023-05-22T11:01:11.004Z,26.94
2023-05-22T11:03:53.470Z,26.98
2023-05-22T11:06:38.854Z,27.09
2023-05-22T11:09:28.125Z,27.12
2023-05-22T11:12:21.131Z,27.10
2023-05-22T11:14:51.779Z,26.99
2023-05-22T11:17:23.265Z,27.26
2023-05-22T11:20:02.607Z,27.52
2023-05-22T11:22:32.565Z,27.57
2023-05-22T11:25:01.063Z,27.42
2023-05-22T11:27:31.207Z,27.47
2023-05-22T11:30:01.902Z,27.48
2023-05-22T11:32:30.466Z,27.59
2023-05-22T11:34:58.833Z,27.66
2023-05-22T11:37:26.807Z,27.87
2023-05-22T11:39:58.051Z,27.91
2023-05-22T11:42:26.311Z,27.93
2023-05-22T11:44:56.940Z,28.09
2023-05-22T11:47:26.711Z,28.31
2023-05-22T11:49:55.600Z,28.48
2023-05-22T11:52:24.226Z,28.55
2023-05-22T11:54:53.873Z,28.52
2023-05-22T11:57:24.315Z,28.34
2023-05-22T11:59:52.399Z,28.49
2023-05-22T12:02:21.975Z,28.25
2023-05-22T12:04:55.552Z,28.36
2023-05-22T12:07:24.128Z,28.56
2023-05-22T12:09:52.381Z,28.63
2023-05-22T12:12:22.737Z,28.65
2023-05-22T12:14:51.325Z,28.69
2023-05-22T12:17:19.586Z,28.68
2023-05-22T12:19:49.138Z,28.63
2023-05-22T12:22:17.242Z,28.36
2023-05-22T12:24:47.158Z,28.52
2023-05-22T12:27:16.109Z,28.46
2023-05-22T12:29:44.342Z,28.58
2023-05-22T12:32:13.561Z,28.68
2023-05-22T12:34:45.625Z,28.81
2023-05-22T12:37:22.890Z,28.83
2023-05-22T12:39:58.220Z,28.83
2023-05-22T12:42:26.533Z,28.76
2023-05-22T12:44:55.511Z,28.85
2023-05-22T12:47:24.575Z,29.00
2023-05-22T12:49:53.091Z,29.13
2023-05-22T12:52:22.541Z,29.20
2023-05-22T12:54:51.972Z,29.23
2023-05-22T12:57:20.079Z,29.14
2023-05-22T12:59:48.488Z,29.13
2023-05-22T13:02:16.955Z,29.18
2023-05-22T13:04:47.949Z,28.98
2023-05-22T13:07:16.318Z,29.02
2023-05-22T13:09:45.888Z,29.14
2023-05-22T13:12:14.448Z,28.96
2023-05-22T13:14:42.802Z,28.89
2023-05-22T13:17:11.148Z,28.90
2023-05-22T13:19:39.428Z,28.94
2023-05-22T13:22:09.132Z,29.00
2023-05-22T13:24:37.405Z,29.14
2023-05-22T13:27:07.706Z,29.28
2023-05-22T13:29:36.190Z,29.16
2023-05-22T13:32:05.236Z,29.24
2023-05-22T13:34:33.926Z,29.07
2023-05-22T13:37:02.894Z,29.07
2023-05-22T13:39:31.313Z,29.07
2023-05-22T13:41:59.894Z,29.25
2023-05-22T13:44:30.015Z,29.34
2023-05-22T13:46:58.585Z,29.51
2023-05-22T13:49:28.035Z,29.49
2023-05-22T13:51:56.093Z,29.40
2023-05-22T13:54:24.181Z,29.46
2023-05-22T13:56:52.203Z,29.36
2023-05-22T13:59:20.257Z,29.28
2023-05-22T14:01:49.867Z,29.30
2023-05-22T14:04:18.152Z,29.35
2023-05-22T14:06:46.183Z,29.24
2023-05-22T14:09:14.172Z,29.34
2023-05-22T14:11:42.386Z,29.35
2023-05-22T14:14:10.366Z,29.33
2023-05-22T14:16:38.436Z,29.24
2023-05-22T14:19:08.229Z,29.12
2023-05-22T14:21:36.639Z,29.13
2023-05-22T14:24:05.382Z,29.09
2023-05-22T14:26:33.517Z,29.16
2023-05-22T14:29:01.898Z,29.19
2023-05-22T14:31:30.408Z,29.21
2023-05-22T14:33:58.901Z,29.25
2023-05-22T14:36:28.410Z,29.14
2023-05-22T14:38:57.696Z,29.26
2023-05-22T14:41:26.626Z,29.39
2023-05-22T14:43:55.011Z,29.32
2023-05-22T14:46:23.317Z,29.32
2023-05-22T14:49:03.412Z,29.28
2023-05-22T14:51:32.941Z,29.09
2023-05-22T14:54:01.283Z,29.18
2023-05-22T14:56:35.081Z,29.27
2023-05-22T14:59:03.563Z,29.45
2023-05-22T15:01:31.667Z,29.40
2023-05-22T15:04:00.065Z,29.35
2023-05-22T15:06:28.285Z,29.25
2023-05-22T15:08:58.148Z,29.18
2023-05-22T15:11:26.604Z,29.26
2023-05-22T15:13:55.638Z,29.37
2023-05-22T15:16:25.705Z,29.13
2023-05-22T15:18:56.317Z,28.97
2023-05-22T15:21:25.785Z,28.82
2023-05-22T15:23:54.262Z,28.72
2023-05-22T15:26:23.779Z,28.49
2023-05-22T15:28:51.982Z,28.46
2023-05-22T15:31:20.307Z,28.26
2023-05-22T15:33:48.617Z,28.23
2023-05-22T15:36:18.818Z,28.07
2023-05-22T15:38:47.161Z,27.95
2023-05-22T15:41:21.304Z,27.87
2023-05-22T15:43:52.489Z,27.87
2023-05-22T15:46:21.890Z,27.83
2023-05-22T15:48:49.868Z,27.71
2023-05-22T15:51:18.195Z,27.59
2023-05-22T15:53:47.045Z,27.67
2023-05-22T15:56:15.111Z,27.52
2023-05-22T15:58:43.190Z,27.03
2023-05-22T16:01:13.629Z,26.61
2023-05-22T16:03:43.870Z,26.14
2023-05-22T16:06:11.975Z,25.61
2023-05-22T16:08:40.434Z,25.10
2023-05-22T16:11:08.527Z,24.63
2023-05-22T16:13:36.653Z,24.30
2023-05-22T16:16:06.199Z,23.75
2023-05-22T16:18:35.985Z,23.35
2023-05-22T16:21:04.849Z,23.06
2023-05-22T16:23:32.964Z,22.85
2023-05-22T16:26:01.141Z,22.53
2023-05-22T16:28:29.198Z,22.44
2023-05-22T16:30:57.186Z,22.31
2023-05-22T16:33:25.447Z,22.05
2023-05-22T16:35:55.141Z,21.89
2023-05-22T16:38:23.080Z,21.89
2023-05-22T16:40:50.972Z,21.75
2023-05-22T16:43:18.939Z,21.68
2023-05-22T16:45:51.095Z,21.48
2023-05-22T16:48:19.715Z,21.46
2023-05-22T16:50:47.714Z,21.35
2023-05-22T16:53:18.034Z,21.25
2023-05-22T16:55:46.329Z,21.27
2023-05-22T16:58:14.316Z,21.29
2023-05-22T17:00:43.339Z,21.33
2023-05-22T17:03:12.017Z,21.35
2023-05-22T17:05:40.712Z,21.42
2023-05-22T17:08:09.091Z,21.51
2023-05-22T17:10:39.172Z,21.50
2023-05-22T17:13:10.372Z,21.52
2023-05-22T17:15:44.229Z,21.37
2023-05-22T17:18:20.139Z,21.31
2023-05-22T17:20:48.578Z,21.28
2023-05-22T17:23:16.948Z,21.22
2023-05-22T17:25:49.691Z,21.23
2023-05-22T17:28:20.414Z,21.19
2023-05-22T17:30:56.552Z,21.18
2023-05-22T17:33:27.225Z,21.17
2023-05-22T17:35:55.428Z,21.20
2023-05-22T17:38:23.416Z,21.29
2023-05-22T17:40:53.639Z,21.19
2023-05-22T17:43:21.586Z,21.26
2023-05-22T17:45:51.056Z,21.19
2023-05-22T17:48:23.648Z,21.16
2023-05-22T17:50:52.203Z,21.06
2023-05-22T17:53:21.145Z,20.99
2023-05-22T17:55:51.030Z,20.90
2023-05-22T17:58:21.205Z,20.90
2023-05-22T18:00:49.950Z,20.76
2023-05-22T18:03:20.434Z,20.76
2023-05-22T18:05:48.990Z,20.79
2023-05-22T18:08:17.435Z,20.80
2023-05-22T18:10:45.678Z,20.81
2023-05-22T18:13:13.836Z,20.88
2023-05-22T18:15:44.962Z,20.90
2023-05-22T18:18:13.734Z,20.94
2023-05-22T18:20:41.976Z,20.76
2023-05-22T18:23:10.343Z,20.82
2023-05-22T18:25:38.748Z,20.85
2023-05-22T18:28:08.374Z,20.91
2023-05-22T18:30:36.802Z,20.90
2023-05-22T18:33:09.119Z,21.06
2023-05-22T18:35:37.366Z,20.86
2023-05-22T18:38:05.383Z,20.80
2023-05-22T18:40:33.445Z,20.78
2023-05-22T18:43:01.507Z,20.74
2023-05-22T18:45:29.557Z,20.71
2023-05-22T18:47:57.708Z,20.71
2023-05-22T18:50:27.859Z,20.59
2023-05-22T18:52:56.559Z,20.52
2023-05-22T18:55:24.738Z,20.40
2023-05-22T18:57:53.192Z,20.30
2023-05-22T19:00:21.383Z,20.24
2023-05-22T19:02:49.486Z,20.23
2023-05-22T19:05:17.490Z,20.13
2023-05-22T19:07:48.369Z,20.12
2023-05-22T19:10:16.743Z,20.08
2023-05-22T19:12:45.154Z,20.04
2023-05-22T19:15:13.317Z,20.08
2023-05-22T19:17:41.335Z,20.08
2023-05-22T19:20:10.280Z,20.14
2023-05-22T19:22:41.460Z,20.16
2023-05-22T19:25:30.177Z,20.19
2023-05-22T19:27:58.201Z,20.13
2023-05-22T19:30:26.264Z,20.05
2023-05-22T19:32:55.952Z,20.04
2023-05-22T19:35:24.467Z,19.94
2023-05-22T19:37:59.988Z,19.93
2023-05-22T19:40:29.446Z,19.96
2023-05-22T19:42:57.961Z,19.94
2023-05-22T19:45:27.687Z,19.97
2023-05-22T19:47:57.082Z,19.95
2023-05-22T19:50:26.317Z,19.93
2023-05-22T19:52:54.625Z,19.89
2023-05-22T19:55:22.942Z,19.84
2023-05-22T19:57:57.620Z,19.68
2023-05-22T20:00:31.078Z,19.56
2023-05-22T20:02:59.499Z,19.52
2023-05-22T20:05:27.834Z,19.54
2023-05-22T20:07:55.991Z,19.56
2023-05-22T20:10:27.086Z,19.57
2023-05-22T20:12:59.657Z,19.55
2023-05-22T20:15:37.681Z,19.59
2023-05-22T20:18:06.918Z,19.55
2023-05-22T20:20:38.134Z,19.49
2023-05-22T20:23:09.560Z,19.43
2023-05-22T20:25:40.549Z,19.47
2023-05-22T20:28:13.198Z,19.52
2023-05-22T20:30:44.237Z,19.46
2023-05-22T20:33:13.827Z,19.50
2023-05-22T20:35:43.361Z,19.47
2023-05-22T20:38:14.518Z,19.46
2023-05-22T20:40:48.002Z,19.52
2023-05-22T20:43:22.682Z,19.51
2023-05-22T20:45:51.234Z,19.47
2023-05-22T20:48:19.553Z,19.45
2023-05-22T20:50:50.879Z,19.48
2023-05-22T20:53:21.971Z,19.45
2023-05-22T20:55:53.449Z,19.43
2023-05-22T20:58:26.165Z,19.43
2023-05-22T21:00:59.719Z,19.38
2023-05-22T21:03:30.522Z,19.40
2023-05-22T21:06:01.874Z,19.34
2023-05-22T21:08:30.177Z,19.32
2023-05-22T21:11:03.474Z,19.25
2023-05-22T21:13:33.343Z,19.28
2023-05-22T21:16:01.984Z,19.24
2023-05-22T21:18:30.420Z,19.18
2023-05-22T21:20:58.942Z,19.19
2023-05-22T21:23:32.215Z,19.18
2023-05-22T21:26:00.568Z,19.19
2023-05-22T21:28:30.592Z,19.23
2023-05-22T21:31:02.522Z,19.20
2023-05-22T21:33:33.288Z,19.16
2023-05-22T21:36:06.683Z,19.16
2023-05-22T21:38:38.103Z,19.12
2023-05-22T21:41:06.662Z,19.10
2023-05-22T21:43:37.795Z,19.06
2023-05-22T21:46:11.440Z,18.99
2023-05-22T21:48:39.674Z,18.97
2023-05-22T21:51:07.892Z,18.96
2023-05-22T21:53:36.093Z,18.97
2023-05-22T21:56:10.265Z,19.03
2023-05-22T21:58:40.414Z,19.00
2023-05-22T22:01:12.894Z,19.00
2023-05-22T22:03:41.146Z,19.03
2023-05-22T22:06:10.314Z,19.02
2023-05-22T22:08:38.439Z,19.00
2023-05-22T22:11:20.804Z,18.96
2023-05-22T22:13:49.744Z,18.92
2023-05-22T22:16:23.963Z,18.88
2023-05-22T22:18:55.895Z,18.89
2023-05-22T22:21:37.955Z,18.83
2023-05-22T22:24:25.236Z,18.82
2023-05-22T22:27:12.070Z,18.85
2023-05-22T22:29:43.847Z,18.83
2023-05-22T22:32:13.871Z,18.74
2023-05-22T22:34:43.280Z,18.79
2023-05-22T22:37:11.736Z,18.79
2023-05-22T22:39:40.041Z,18.79
2023-05-22T22:42:08.970Z,18.73
2023-05-22T22:44:40.575Z,18.73
2023-05-22T22:47:09.857Z,18.65
2023-05-22T22:49:39.372Z,18.58
2023-05-22T22:52:07.783Z,18.62
2023-05-22T22:54:36.042Z,18.64
2023-05-22T22:57:04.859Z,18.65
2023-05-22T22:59:35.629Z,18.69
2023-05-22T23:02:07.611Z,18.65
2023-05-22T23:04:38.654Z,18.63
2023-05-22T23:07:12.174Z,18.49
2023-05-22T23:09:41.085Z,18.43
2023-05-22T23:12:10.139Z,18.46
2023-05-22T23:14:39.042Z,18.39
2023-05-22T23:17:07.829Z,18.39
2023-05-22T23:19:36.598Z,18.35
2023-05-22T23:22:08.092Z,18.38
2023-05-22T23:24:40.548Z,18.35
2023-05-22T23:27:12.486Z,18.31
2023-05-22T23:29:44.505Z,18.30
2023-05-22T23:32:14.689Z,18.25
2023-05-22T23:34:43.306Z,18.25
2023-05-22T23:37:11.630Z,18.26
2023-05-22T23:39:41.095Z,18.24
2023-05-22T23:42:10.019Z,18.21
2023-05-22T23:44:38.106Z,18.21
2023-05-22T23:47:06.909Z,18.18
2023-05-22T23:49:35.324Z,18.16
2023-05-22T23:52:03.891Z,18.19
2023-05-22T23:54:31.942Z,18.20
2023-05-22T23:57:01.601Z,18.18
2023-05-22T23:59:31.371Z,18.15
